Weather forecast for Bezmiechowa

Poland, 496 m
N49.521, E22.410


Sounding

Red line — air temperature ˚C.
Blue line — thermal bubble temperature ˚C.
Green line — dew point temperature ˚C.
Wind speed is in meters per second.

Table forecast

GFS 0.25˚ model

temp. wind gust humid. clouds prec. press. hpbl
Wed21 00:00 -0 94.0 e 4 8 92 100 3.1 1020 384
03:00 -1 90.0 e 3 8 92 100 0.1 1020 404
06:00 -1 93.0 e 3 9 91 100 0.3 1020 400
09:00 -0 85.0 e 4 9 88 100 0.0 1021 459
12:00 1 86.0 e 5 10 86 100 0.0 1021 558
15:00 -1 86.0 e 5 11 89 100 0.0 1022 567
18:00 -1 90.0 e 5 11 90 98 0.0 1023 584
21:00 -1 91.0 e 4 10 91 97 0.1 1024 456
 
Thu22 00:00 -2 90.0 e 3 8 94 88 0.1 1024 325
03:00 -2 88.0 e 2 5 95 99 0.0 1024 236
06:00 -1 87.0 e 1 3 93 99 0.1 1025 208
09:00 1 80.0 e 1 3 87 100 0.0 1025 261
12:00 2 72.0 ene 1 2 85 100 0.0 1025 324
15:00 -1 68.0 ene 1 1 96 29 0.0 1026 21
18:00 -2 111.0 ese 1 1 96 17 0.0 1026 21
21:00 -2 129.0 se 1 1 96 0 0.0 1027 21
 
Fri23 00:00 -2 118.0 ese 1 1 95 0 0.0 1028 21
03:00 -1 133.0 se 1 1 95 0 0.0 1028 21
06:00 -1 149.0 sse 1 1 95 0 0.0 1028 21
09:00 4 163.0 sse 0 1 83 0 0.0 1029 190
12:00 6 187.0 s 1 2 81 0 0.0 1027 436
15:00 2 171.0 s 1 2 94 0 0.0 1027 22
18:00 1 197.0 ssw 2 2 94 0 0.0 1027 43
21:00 1 197.0 ssw 3 11 93 0 0.0 1026 309
 
Sat24 00:00 2 206.0 ssw 3 13 93 0 0.0 1025 421
03:00 3 206.0 ssw 4 13 92 8 0.0 1023 510
06:00 4 208.0 ssw 4 14 90 25 0.0 1021 645
09:00 6 213.0 ssw 7 15 78 84 0.0 1020 741
12:00 7 212.0 ssw 7 15 75 91 0.0 1017 755
15:00 6 210.0 ssw 6 16 77 100 0.9 1017 637
18:00 5 215.0 sw 6 15 79 100 1.4 1016 656
21:00 5 213.0 ssw 5 14 80 100 0.1 1015 564
 
Sun25 00:00 5 217.0 sw 6 15 83 100 0.3 1014 665
03:00 5 232.0 sw 5 12 88 100 0.1 1013 485
06:00 4 233.0 sw 3 9 93 100 0.1 1013 302
09:00 6 243.0 wsw 3 6 85 100 0.0 1013 394
12:00 7 247.0 wsw 3 5 81 100 0.0 1012 647
15:00 5 264.0 w 1 2 93 99 0.0 1012 35
18:00 4 245.0 wsw 1 1 94 99 0.1 1012 22
21:00 4 272.0 w 1 1 94 99 0.1 1012 22
 

0.017 s